Archival Weather

Aeroparque Jorge Newbery

Buenos Aires, Argentina (SABE)

Report from: Sunday, March 19, 2023 1:00 PM -03
Current time: Tuesday, July 16, 2024 12:13 PM -03

Current weather – Weather history – Daily summaries
Weather forecast

Temperature26.0°C (78.8°F)
Dew point20.0°C (68.0°F)
Winds 7 kts (3.6 m/s, 8.1 mph) Vrb
Winds variableWinds variable from East (90°) to South-Southeast (160°)
Clouds Sky clear
Altimeter29.88 in.Hg (1012 mB)
Relative humidity70 %
Density altitude1,630 ft. (497 m)
Remarks Ceiling and visibility OK
Corrected report
No significant changes expected in the next two hours
Flight conditions Visual Meteorological Conditions
Raw dataCOR SABE 191600Z 13007KT 090V160 CAVOK 26/20 Q1012 NOSIG RMK PP000
An error has occurred. This application may no longer respond until reloaded. Reload 🗙